TimeCDT,TemperatureF,Dew PointF,Humidity,Sea Level PressureIn,VisibilityMPH,Wind Direction,Wind SpeedMPH,Gust SpeedMPH,PrecipitationIn,Events,Conditions,WindDirDegrees,DateUTC
12:54 AM,71.1,68.0,90,29.82,10.0,West,8.1,-,N/A,,Partly Cloudy,270,2013-07-10 05:54:00
1:54 AM,71.1,68.0,90,29.83,10.0,WNW,9.2,-,N/A,,Partly Cloudy,300,2013-07-10 06:54:00
2:54 AM,69.1,66.0,90,29.85,10.0,NW,12.7,-,N/A,,Partly Cloudy,310,2013-07-10 07:54:00
3:54 AM,66.0,62.1,87,29.86,10.0,NNW,11.5,-,N/A,,Clear,330,2013-07-10 08:54:00
4:54 AM,64.0,61.0,90,29.89,10.0,NW,8.1,-,N/A,,Clear,320,2013-07-10 09:54:00
5:54 AM,64.0,60.1,87,29.91,10.0,NW,13.8,-,N/A,,Scattered Clouds,310,2013-07-10 10:54:00
6:54 AM,63.0,55.9,78,29.93,10.0,NW,12.7,19.6,N/A,,Clear,320,2013-07-10 11:54:00
7:54 AM,64.9,55.9,73,29.94,10.0,NW,16.1,-,N/A,,Clear,320,2013-07-10 12:54:00
8:54 AM,66.0,55.0,68,29.96,10.0,NNW,16.1,-,N/A,,Clear,330,2013-07-10 13:54:00
9:54 AM,68.0,54.0,61,29.96,9.0,NW,17.3,27.6,N/A,,Partly Cloudy,320,2013-07-10 14:54:00
10:54 AM,70.0,55.0,59,29.96,10.0,NNW,17.3,25.3,N/A,,Scattered Clouds,330,2013-07-10 15:54:00
11:54 AM,71.1,55.9,59,29.97,10.0,NW,12.7,26.5,N/A,,Scattered Clouds,320,2013-07-10 16:54:00
12:54 PM,73.0,54.0,51,29.97,10.0,NNW,16.1,24.2,N/A,,Partly Cloudy,340,2013-07-10 17:54:00
1:54 PM,73.9,55.0,52,29.98,10.0,NW,12.7,20.7,N/A,,Mostly Cloudy,320,2013-07-10 18:54:00
2:54 PM,72.0,54.0,53,29.99,10.0,NNW,8.1,-,N/A,,Overcast,340,2013-07-10 19:54:00
3:54 PM,73.0,53.1,49,29.98,10.0,North,10.4,-,N/A,,Partly Cloudy,350,2013-07-10 20:54:00
4:54 PM,72.0,53.1,51,29.98,10.0,NNW,10.4,-,N/A,,Mostly Cloudy,340,2013-07-10 21:54:00
5:54 PM,73.0,53.1,49,29.99,10.0,NW,11.5,-,N/A,,Clear,320,2013-07-10 22:54:00
6:54 PM,72.0,52.0,49,29.99,10.0,NNW,11.5,-,N/A,,Partly Cloudy,330,2013-07-10 23:54:00
7:54 PM,70.0,54.0,57,30.00,10.0,NNW,6.9,-,N/A,,Clear,330,2013-07-11 00:54:00
8:54 PM,64.9,55.9,73,30.00,10.0,Calm,Calm,-,N/A,,Clear,0,2013-07-11 01:54:00
9:54 PM,63.0,55.0,75,30.02,10.0,Calm,Calm,-,N/A,,Clear,0,2013-07-11 02:54:00
10:54 PM,60.1,55.0,83,30.03,10.0,Calm,Calm,-,N/A,,Clear,0,2013-07-11 03:54:00
11:54 PM,59.0,55.0,87,30.05,10.0,Calm,Calm,-,N/A,,Clear,0,2013-07-11 04:54:00